Airfield :
LOGIN :

Register | Disclaimer

   EN    FR    IT 

 










Legend :    VFR   Marginal VFR   IFR   Intensive IFR   Very Intensive IFR
Visi :
Ceiling :
>= 8 km
>= 3000ft
5 to 8 km
1000 to 3000 ft
1500m to 5 km
500 to 1000 ft
800 to 1500m
200 to 500 ft
< 800m
< 200 ft
Symbols :   Thunderstorms  Fog  Heavy snow  Heavy precipitations  Wind > 20 kt
SIGMETs :     Misc.  Thunderstorms  Icing  Turbulence  Mountain Waves  Volcanic Ashes






- Airport Elevation : 821 ft
- IATA code : LYS


LFLL - Lyon St Exupéry / Satolas

CURRENT METAR :
  • 150900Z 26008KT 210V320 2000 RA SCT003 SCT011 BKN023 13/12 Q1011 NOSIG

EXPIRED METARs :
  • 150830Z 19004KT 160V220 9999 -RA FEW003 BKN033 BKN090 13/13 Q1010 RETSRA NOSIG
  • 150800Z 11007KT 080V180 9999 -RA FEW003 BKN046 BKN090 13/13 Q1010 RETSRA NOSIG
  • 150730Z 07007KT 040V100 4200 RA FEW005 SCT015 BKN046 13/13 Q1010 RETSRA NOSIG
  • 150700Z 07005KT 030V130 3600 +RA SCT006 FEW026CB BKN040 13/13 Q1010 RETSRA NOSIG
  • 150630Z 05005KT 360V080 3600 +TSRA SCT006 FEW030CB BKN040 13/13 Q1010 TEMPO +TSRA

TAF TAF LFLL
Valid from the 15 at 06:00 until the 16 at 12:00 UTC


150500Z 1506/1612 VRB05KT 4000 RA FEW012 OVC030
TEMPO 1506/1508 1500 +TSRA BKN009 BKN030CB
BECMG 1508/1510 9999 NSW BKN025
BECMG 1510/1512 FEW035TCU SCT040
TEMPO 1512/1517 4000 SHRA BKN035TCU
PROB30
TEMPO 1512/1517 2000 TSRA BKN035CB
FM151800 15004KT CAVOK
TEMPO 1603/1608 0400 FG



MET'MAP, your aeronautical weather chart ! - Copyright ORBIFLY December 2007 - Disclaimer

ORBIFLY MET'MAP TEAM :

Programming & Development : Alexandra Zaïnal
Concept & Development : Baudouin d'Aumeries
Co-Development & Prog : Marc-Olivier Méhu
Technical & hardware support : Manuel Goepfert

Contact : metmap@orbifly.com




SOURCES & CREDITS :

   NOAA